Time;durP1;ratioP1;P1;durP2;ratioP2;P2;SDS_P1;SDS_P2;PMS_P1;PMS_P2;Temp;Humidity;BMP_temperature;BMP_pressure;BME280_temperature;BME280_humidity;BME280_pressure;Samples;Min_cycle;Max_cycle;Signal;HPM_P1;HPM_P2
2022/04/18 00:00:07;;;;;;;4.25;2.67;;;;;;;5.00;100.00;148918.23;1614172;87;21032;-64
2022/04/18 00:02:37;;;;;;;4.83;2.87;;;;;;;4.96;100.00;148907.86;1614248;87;21111;-64
2022/04/18 00:05:07;;;;;;;4.92;3.27;;;;;;;4.95;100.00;148906.59;1614423;88;21383;-65
2022/04/18 00:07:34;;;;;;;7.22;2.87;;;;;;;4.88;100.00;148889.78;1614278;88;21276;-64
2022/04/18 00:10:04;;;;;;;4.05;3.10;;;;;;;4.88;100.00;148889.78;1614280;87;20955;-66
2022/04/18 00:12:33;;;;;;;6.05;3.27;;;;;;;4.87;100.00;148885.94;1614001;87;21071;-66
2022/04/18 00:15:02;;;;;;;6.10;3.22;;;;;;;4.85;100.00;148882.05;1614264;87;20983;-66
2022/04/18 00:17:29;;;;;;;4.87;3.27;;;;;;;4.82;100.00;148874.30;1613776;87;21126;-66
2022/04/18 00:19:58;;;;;;;4.78;3.20;;;;;;;4.81;100.00;148871.72;1614592;88;21043;-67
2022/04/18 00:22:26;;;;;;;5.08;3.42;;;;;;;4.78;100.00;148863.97;1595850;88;22219;-66
2022/04/18 00:24:55;;;;;;;4.62;3.33;;;;;;;4.78;100.00;148862.66;1614287;87;21087;-65
2022/04/18 00:27:23;;;;;;;5.40;3.52;;;;;;;4.76;100.00;148858.81;1614168;88;21019;-64
2022/04/18 00:29:51;;;;;;;7.35;3.47;;;;;;;4.75;100.00;148856.17;1614320;87;21062;-66
2022/04/18 00:32:19;;;;;;;5.53;3.58;;;;;;;4.75;100.00;148854.91;1614263;88;20917;-66
2022/04/18 00:34:48;;;;;;;5.12;3.50;;;;;;;4.75;100.00;148854.91;1614195;88;21051;-63
2022/04/18 00:37:15;;;;;;;6.20;3.70;;;;;;;4.73;100.00;148851.02;1614269;88;21004;-64
2022/04/18 00:39:43;;;;;;;4.53;3.50;;;;;;;4.73;100.00;148852.33;1613898;88;21090;-65
2022/04/18 00:42:12;;;;;;;6.37;3.95;;;;;;;4.73;100.00;148851.02;1614321;87;21008;-66
2022/04/18 00:44:39;;;;;;;5.25;3.37;;;;;;;4.73;100.00;148851.02;1614099;87;22261;-66
2022/04/18 00:47:07;;;;;;;5.35;3.22;;;;;;;4.73;100.00;148851.02;1614310;87;21380;-64
2022/04/18 00:49:35;;;;;;;4.62;3.60;;;;;;;4.73;100.00;148851.02;1614077;87;21087;-64
2022/04/18 00:52:05;;;;;;;5.40;3.35;;;;;;;4.71;100.00;148845.84;1614547;88;21072;-66
2022/04/18 00:54:33;;;;;;;6.50;3.35;;;;;;;4.71;100.00;148847.17;1614498;88;21106;-64
2022/04/18 00:57:01;;;;;;;5.37;3.50;;;;;;;4.71;100.00;148845.84;1614377;88;21894;-66
2022/04/18 00:59:31;;;;;;;4.80;3.35;;;;;;;4.72;100.00;148848.44;1613978;87;21075;-64
2022/04/18 01:01:59;;;;;;;5.10;3.55;;;;;;;4.71;100.00;148845.84;1613871;87;21625;-65
2022/04/18 01:04:26;;;;;;;5.12;3.55;;;;;;;4.73;100.00;148851.02;1613985;87;21613;-65
2022/04/18 01:06:54;;;;;;;5.45;3.58;;;;;;;4.73;100.00;148852.33;1614260;87;21425;-66
2022/04/18 01:09:21;;;;;;;5.40;3.50;;;;;;;4.75;100.00;148856.17;1614160;87;21507;-64
2022/04/18 01:11:49;;;;;;;5.87;4.08;;;;;;;4.75;100.00;148856.17;1613823;88;21103;-65
2022/04/18 01:14:16;;;;;;;6.28;4.03;;;;;;;4.77;100.00;148861.39;1614873;88;21403;-66
2022/04/18 01:16:51;;;;;;;;;;;;;;;4.76;100.00;148857.50;1616310;87;21517;-66
2022/04/18 01:19:34;;;;;;;5.08;3.80;;;;;;;4.79;100.00;148866.56;1593343;88;20193;-66
2022/04/18 01:22:01;;;;;;;4.97;3.58;;;;;;;4.80;100.00;148869.12;1614441;87;21555;-64
2022/04/18 01:30:13;;;;;;;6.03;4.03;;;;;;;4.85;100.00;148882.05;1614338;87;20933;-63
2022/04/18 01:32:40;;;;;;;5.20;3.42;;;;;;;4.87;100.00;148887.20;1613948;87;21102;-65
2022/04/18 01:35:07;;;;;;;4.80;3.45;;;;;;;4.86;100.00;148884.63;1614547;87;21318;-63
2022/04/18 01:37:36;;;;;;;5.58;3.60;;;;;;;4.85;100.00;148880.72;1613762;88;21083;-63
2022/04/18 01:40:06;;;;;;;5.55;3.52;;;;;;;4.85;100.00;148880.72;1596868;88;21031;-65
2022/04/18 01:42:33;;;;;;;6.28;3.25;;;;;;;4.85;100.00;148882.05;1614612;88;21062;-66
2022/04/18 01:45:00;;;;;;;7.20;3.60;;;;;;;4.86;100.00;148883.31;1614623;87;21003;-66
2022/04/18 01:47:29;;;;;;;4.22;3.00;;;;;;;4.86;100.00;148883.31;1614357;87;21196;-67
2022/04/18 01:49:56;;;;;;;5.65;3.40;;;;;;;4.87;100.00;148887.20;1614282;87;21071;-66
2022/04/18 01:52:24;;;;;;;4.50;3.52;;;;;;;4.87;100.00;148887.20;1614163;87;21157;-67
2022/04/18 01:54:52;;;;;;;4.45;3.05;;;;;;;4.87;100.00;148885.94;1614305;87;21023;-66
2022/04/18 01:57:21;;;;;;;5.55;3.08;;;;;;;4.84;100.00;148879.47;1614216;87;21553;-66
2022/04/18 01:59:50;;;;;;;4.60;2.98;;;;;;;4.85;100.00;148880.72;1614569;87;21290;-66
2022/04/18 02:02:17;;;;;;;4.85;3.25;;;;;;;4.81;100.00;148870.41;1614271;87;20992;-68
2022/04/18 02:04:45;;;;;;;4.58;2.95;;;;;;;4.81;100.00;148870.41;1614048;87;21078;-67
2022/04/18 02:07:12;;;;;;;4.72;3.20;;;;;;;4.81;100.00;148871.72;1614372;87;20976;-67
2022/04/18 02:09:42;;;;;;;4.20;2.90;;;;;;;4.79;100.00;148865.23;1614200;87;21572;-69
2022/04/18 02:12:12;;;;;;;5.10;3.27;;;;;;;4.79;100.00;148865.23;1638942;87;21045;-67
2022/04/18 02:14:41;;;;;;;4.83;2.80;;;;;;;4.79;100.00;148866.56;1614230;87;21066;-65
2022/04/18 02:17:10;;;;;;;3.65;2.83;;;;;;;4.77;100.00;148861.39;1613745;87;21051;-66
2022/04/18 02:19:39;;;;;;;4.37;3.12;;;;;;;4.75;100.00;148854.91;1613481;87;21567;-66
2022/04/18 02:22:08;;;;;;;5.80;3.50;;;;;;;4.75;100.00;148854.91;1614066;87;20928;-66
2022/04/18 02:24:37;;;;;;;5.10;3.65;;;;;;;4.76;100.00;148858.81;1613839;87;22108;-68
2022/04/18 02:27:06;;;;;;;4.83;3.62;;;;;;;4.75;100.00;148856.17;1614574;87;20988;-68
2022/04/18 02:29:34;;;;;;;4.40;3.35;;;;;;;4.73;100.00;148851.02;1614643;88;21162;-68
2022/04/18 02:34:46;;;;;;;;;;;;;;;4.68;100.00;148838.11;1616548;88;21082;-68
2022/04/18 02:37:13;;;;;;;4.20;3.17;;;;;;;4.64;100.00;148827.78;1614369;88;21235;-69
2022/04/18 02:39:42;;;;;;;4.62;3.30;;;;;;;4.64;100.00;148827.78;1613993;87;21115;-68
2022/04/18 02:42:10;;;;;;;5.03;3.15;;;;;;;4.62;100.00;148823.87;1614445;87;21100;-68
2022/04/18 02:44:45;;;;;;;4.12;2.85;;;;;;;4.59;99.44;148816.14;1613953;88;21155;-68
2022/04/18 02:47:09;;;;;;;5.00;3.22;;;;;;;4.56;99.72;148809.72;1611024;87;21508;-67
2022/04/18 02:49:37;;;;;;;5.08;3.08;;;;;;;4.54;99.97;148803.23;1607235;87;21165;-67
2022/04/18 02:52:05;;;;;;;3.95;2.90;;;;;;;4.53;100.00;148800.66;1627052;86;21505;-66
2022/04/18 02:54:33;;;;;;;4.50;3.00;;;;;;;4.48;98.39;148787.75;1607488;87;21067;-66
2022/04/18 02:57:01;;;;;;;4.03;2.90;;;;;;;4.48;98.39;148787.75;1607579;89;21123;-66
2022/04/18 02:59:28;;;;;;;3.47;2.30;;;;;;;4.46;97.83;148783.84;1607186;89;21087;-64
2022/04/18 03:01:56;;;;;;;4.00;2.50;;;;;;;4.40;96.15;148768.38;1607254;89;21253;-64
2022/04/18 03:04:24;;;;;;;3.80;2.62;;;;;;;4.40;96.15;148768.38;1607506;87;21092;-65
2022/04/18 03:06:51;;;;;;;4.87;2.52;;;;;;;4.33;95.10;148751.56;1607094;87;21086;-64
2022/04/18 03:09:19;;;;;;;4.15;2.20;;;;;;;4.33;95.10;148751.56;1607138;87;20940;-64
2022/04/18 03:11:48;;;;;;;3.83;2.30;;;;;;;4.35;95.60;148756.73;1607119;87;21107;-66
2022/04/18 03:14:15;;;;;;;4.60;2.72;;;;;;;4.34;94.90;148752.87;1607593;89;21470;-65
2022/04/18 03:16:45;;;;;;;5.05;2.77;;;;;;;4.33;95.27;148751.56;1607258;88;21054;-66
2022/04/18 03:19:12;;;;;;;4.22;2.98;;;;;;;4.34;95.08;148752.87;1607488;89;21036;-65
2022/04/18 03:21:41;;;;;;;4.05;2.80;;;;;;;4.33;96.65;148751.56;1607913;87;21565;-64
2022/04/18 03:24:11;;;;;;;3.10;2.62;;;;;;;4.33;97.24;148751.56;1607590;89;21044;-64
2022/04/18 03:26:40;;;;;;;2.98;2.40;;;;;;;4.34;97.21;148752.87;1607956;87;21056;-65
2022/04/18 03:29:11;;;;;;;4.42;2.87;;;;;;;4.32;97.23;148748.98;1607650;87;21024;-66
2022/04/18 03:31:38;;;;;;;3.90;2.60;;;;;;;4.29;97.29;148742.50;1606970;87;21100;-65
2022/04/18 03:34:08;;;;;;;3.90;3.08;;;;;;;4.29;97.29;148742.50;1607381;87;21040;-67
2022/04/18 03:42:09;;;;;;;5.00;2.95;;;;;;;4.23;96.14;148727.03;1607358;87;21048;-65
2022/04/18 03:44:43;;;;;;;3.25;2.15;;;;;;;4.22;96.53;148724.44;1607338;89;21163;-66
2022/04/18 03:47:13;;;;;;;4.30;3.07;;;;;;;4.16;95.02;148710.22;1607734;87;21057;-68
2022/04/18 03:49:43;;;;;;;5.65;3.33;;;;;;;4.16;95.02;148710.22;1607291;87;21804;-65
2022/04/18 03:52:11;;;;;;;4.00;2.98;;;;;;;4.15;95.61;148706.38;1626861;86;21881;-65
2022/04/18 03:54:43;;;;;;;3.95;3.10;;;;;;;4.13;96.11;148701.22;1606870;87;21099;-68
2022/04/18 03:57:09;;;;;;;4.53;3.10;;;;;;;4.10;95.61;148694.75;1607312;87;21063;-68
2022/04/18 03:59:44;;;;;;;4.35;2.72;;;;;;;4.09;96.28;148690.84;1604451;87;21083;-68
2022/04/18 04:02:13;;;;;;;3.47;2.77;;;;;;;4.08;96.05;148688.27;1607544;87;21071;-68
2022/04/18 04:04:43;;;;;;;4.58;3.08;;;;;;;4.05;96.21;148681.84;1607404;87;21382;-69
2022/04/18 04:07:11;;;;;;;4.17;3.05;;;;;;;4.03;96.08;148675.37;1607268;89;21045;-69
2022/04/18 04:09:39;;;;;;;4.67;3.30;;;;;;;4.03;96.08;148675.37;1607028;87;21127;-69
2022/04/18 04:12:08;;;;;;;4.42;2.90;;;;;;;4.01;96.26;148672.78;1607445;89;21033;-65
2022/04/18 04:14:37;;;;;;;4.45;3.37;;;;;;;3.97;95.12;148662.47;1607457;87;21135;-69
2022/04/18 04:17:06;;;;;;;4.78;3.08;;;;;;;3.99;96.40;148667.63;1606957;87;21033;-68
2022/04/18 04:19:35;;;;;;;4.47;3.08;;;;;;;4.00;95.49;148670.20;1606399;87;21110;-70
2022/04/18 04:22:04;;;;;;;4.62;2.83;;;;;;;4.01;96.92;148672.78;1607066;87;22050;-70
2022/04/18 04:24:33;;;;;;;5.22;3.20;;;;;;;4.01;96.37;148671.52;1607388;87;21894;-69
2022/04/18 04:27:05;;;;;;;4.62;2.77;;;;;;;4.01;96.37;148671.52;1607278;87;21941;-69
2022/04/18 04:29:32;;;;;;;4.75;3.35;;;;;;;4.01;95.83;148672.78;1607302;87;21245;-68
2022/04/18 04:32:09;;;;;;;4.60;2.95;;;;;;;4.05;96.04;148680.53;1607531;87;21060;-68
2022/04/18 04:34:40;;;;;;;5.92;3.55;;;;;;;4.05;94.77;148680.53;1607365;89;21040;-70
2022/04/18 04:37:25;;;;;;;4.15;2.52;;;;;;;4.10;94.78;148693.48;1607075;89;21455;-70
2022/04/18 04:39:54;;;;;;;4.42;2.95;;;;;;;4.10;94.78;148693.48;1607062;87;21481;-70
2022/04/18 04:42:22;;;;;;;4.05;3.27;;;;;;;4.10;94.06;148693.48;1607219;89;21861;-69
2022/04/18 04:44:49;;;;;;;4.55;3.52;;;;;;;4.11;94.34;148696.06;1606739;87;21093;-69
2022/04/18 04:47:22;;;;;;;4.97;3.42;;;;;;;4.13;95.41;148701.22;1610421;87;21043;-68
2022/04/18 04:49:50;;;;;;;6.25;2.92;;;;;;;4.11;94.09;148696.06;1613940;88;21106;-67
2022/04/18 04:52:25;;;;;;;;;;;;;;;4.08;93.60;148688.27;1616375;87;21000;-70
2022/04/18 04:54:55;;;;;;;4.35;3.30;;;;;;;4.09;94.36;148690.84;1613752;87;20237;-69
2022/04/18 04:57:23;;;;;;;4.40;2.95;;;;;;;4.07;95.05;148685.69;1614392;87;21044;-70
2022/04/18 04:59:56;;;;;;;7.08;3.33;;;;;;;4.08;95.31;148688.27;1616576;87;21115;-69
2022/04/18 05:02:24;;;;;;;4.37;3.17;;;;;;;4.06;94.76;148683.11;1613980;87;21012;-69
2022/04/18 05:04:52;;;;;;;5.15;3.10;;;;;;;4.08;94.94;148688.27;1614136;87;21098;-69
2022/04/18 05:07:19;;;;;;;5.00;3.65;;;;;;;4.09;94.75;148690.84;1614815;88;21240;-68
2022/04/18 05:09:50;;;;;;;3.77;2.60;;;;;;;4.12;95.62;148698.64;1614608;87;21082;-69
2022/04/18 05:12:18;;;;;;;5.12;3.37;;;;;;;4.07;94.46;148687.00;1614341;87;21000;-68
2022/04/18 05:14:48;;;;;;;4.92;3.37;;;;;;;4.12;96.15;148698.64;1614469;87;21071;-68
2022/04/18 05:17:18;;;;;;;5.08;3.50;;;;;;;4.12;95.03;148699.91;1616208;87;21067;-67
2022/04/18 05:19:48;;;;;;;4.33;3.30;;;;;;;4.14;95.58;148703.80;1614967;87;21166;-70
2022/04/18 05:22:17;;;;;;;5.25;3.33;;;;;;;4.13;95.93;148701.22;1614656;87;21051;-69
2022/04/18 05:24:44;;;;;;;3.92;3.12;;;;;;;4.14;94.64;148703.80;1639249;85;21071;-70
2022/04/18 05:27:18;;;;;;;4.95;3.08;;;;;;;4.17;94.99;148711.53;1614557;87;21040;-69
2022/04/18 05:29:43;;;;;;;5.67;3.35;;;;;;;4.17;94.96;148711.53;1613906;87;21324;-67
2022/04/18 05:32:12;;;;;;;4.15;3.05;;;;;;;4.19;95.44;148716.70;1614432;88;21257;-65
2022/04/18 05:34:41;;;;;;;4.80;3.50;;;;;;;4.19;93.47;148716.70;1614764;87;22069;-66
2022/04/18 05:37:24;;;;;;;4.62;3.47;;;;;;;4.25;94.34;148732.19;1614108;87;21103;-64
2022/04/18 05:40:09;;;;;;;4.45;3.08;;;;;;;4.25;94.34;148732.19;1615380;87;21139;-64
2022/04/18 05:42:37;;;;;;;4.62;3.50;;;;;;;4.29;92.65;148741.25;1614648;87;21139;-63
2022/04/18 05:45:10;;;;;;;5.58;3.77;;;;;;;4.32;92.62;148748.98;1614483;88;21367;-65
2022/04/18 05:47:38;;;;;;;5.85;4.12;;;;;;;4.35;92.25;148755.47;1614449;87;21672;-69
2022/04/18 05:50:07;;;;;;;5.87;3.98;;;;;;;4.38;91.81;148764.47;1614575;88;21556;-70
2022/04/18 05:52:36;;;;;;;5.67;3.87;;;;;;;4.48;92.08;148789.02;1614401;87;21112;-69
2022/04/18 05:55:05;;;;;;;7.75;4.08;;;;;;;4.52;91.13;148799.34;1617560;85;21072;-69
2022/04/18 05:57:35;;;;;;;5.00;3.33;;;;;;;4.61;92.21;148820.03;1614458;87;21240;-69
2022/04/18 06:00:06;;;;;;;5.20;3.70;;;;;;;4.66;90.02;148832.94;1614284;87;21540;-68
2022/04/18 06:02:42;;;;;;;5.97;4.30;;;;;;;4.73;90.54;148851.02;1614671;87;21110;-69
2022/04/18 06:05:11;;;;;;;6.92;4.15;;;;;;;4.77;89.41;148861.39;1614427;87;21499;-69
2022/04/18 06:07:45;;;;;;;5.05;3.00;;;;;;;4.85;88.90;148882.05;1614542;86;21063;-68
2022/04/18 06:10:18;;;;;;;4.58;2.85;;;;;;;4.88;87.51;148889.78;1615443;88;22118;-69
2022/04/18 06:12:48;;;;;;;4.25;3.40;;;;;;;4.90;87.88;148892.38;1613703;87;21087;-69
2022/04/18 06:15:17;;;;;;;6.05;3.72;;;;;;;4.92;88.85;148897.53;1613835;87;21391;-68
2022/04/18 06:17:46;;;;;;;5.62;3.85;;;;;;;4.94;88.19;148902.69;1613389;87;21672;-65
2022/04/18 06:20:15;;;;;;;5.72;3.40;;;;;;;4.94;88.01;148902.69;1614075;88;21017;-63
2022/04/18 06:22:42;;;;;;;4.87;3.20;;;;;;;5.04;86.70;148928.56;1613714;87;22800;-64
2022/04/18 06:25:10;;;;;;;6.17;3.55;;;;;;;5.04;86.70;148928.56;1614193;87;21059;-69
2022/04/18 06:27:37;;;;;;;7.62;3.52;;;;;;;5.09;85.59;148941.47;1613721;87;21376;-68
2022/04/18 06:30:06;;;;;;;4.50;3.22;;;;;;;5.14;84.80;148954.39;1614300;87;21106;-68
2022/04/18 06:32:37;;;;;;;6.47;3.65;;;;;;;5.22;84.76;148972.52;1616909;85;21604;-68
2022/04/18 06:35:07;;;;;;;3.83;2.95;;;;;;;5.27;82.50;148985.44;1614597;87;21670;-69
2022/04/18 06:37:36;;;;;;;6.97;3.50;;;;;;;5.34;82.96;149003.52;1638674;87;21382;-69
2022/04/18 06:40:22;;;;;;;4.47;3.30;;;;;;;5.42;82.71;149024.22;1614067;87;21028;-63
2022/04/18 06:42:50;;;;;;;4.83;3.20;;;;;;;5.53;82.09;149051.37;1613819;87;21059;-64
2022/04/18 06:45:19;;;;;;;4.35;2.98;;;;;;;5.56;80.72;149057.80;1614808;87;20972;-65
2022/04/18 06:47:46;;;;;;;5.15;3.15;;;;;;;5.53;80.75;149050.06;1613484;87;21995;-64
2022/04/18 06:50:15;;;;;;;4.72;3.12;;;;;;;5.48;81.41;149037.14;1614075;87;21116;-64
2022/04/18 06:53:01;;;;;;;4.83;2.62;;;;;;;5.49;82.84;149040.98;1614200;88;21083;-65
2022/04/18 06:58:26;;;;;;;4.95;2.90;;;;;;;5.57;81.24;149060.39;1615248;87;21012;-64
2022/04/18 07:00:55;;;;;;;5.42;2.72;;;;;;;5.58;79.43;149062.97;1614066;88;21107;-65
2022/04/18 07:03:26;;;;;;;3.40;2.67;;;;;;;5.58;78.90;149062.97;1614205;88;20995;-65
2022/04/18 07:05:54;;;;;;;3.27;2.40;;;;;;;5.62;79.84;149073.31;1638416;85;21103;-69
2022/04/18 07:08:22;;;;;;;3.67;2.85;;;;;;;5.68;79.47;149088.84;1613985;88;21067;-69
2022/04/18 07:10:51;;;;;;;3.85;2.80;;;;;;;5.78;79.95;149112.11;1614158;88;20991;-68
2022/04/18 07:13:18;;;;;;;3.92;2.35;;;;;;;5.83;77.86;149125.02;1614326;88;21343;-68
2022/04/18 07:15:48;;;;;;;3.40;2.60;;;;;;;5.77;76.12;149109.52;1638864;87;21079;-67
2022/04/18 07:18:17;;;;;;;3.87;3.00;;;;;;;5.66;77.61;149083.69;1614543;87;20980;-68
2022/04/18 07:20:45;;;;;;;3.70;2.60;;;;;;;5.64;78.92;149078.52;1613756;87;21557;-69
2022/04/18 07:23:15;;;;;;;3.85;2.80;;;;;;;5.61;77.94;149069.45;1614489;87;20996;-68
2022/04/18 07:25:47;;;;;;;3.62;2.58;;;;;;;5.56;77.00;149057.80;1615276;87;21127;-65
2022/04/18 07:28:26;;;;;;;5.85;2.50;;;;;;;5.49;76.94;149040.98;1614209;87;21024;-68
2022/04/18 07:30:55;;;;;;;3.62;2.45;;;;;;;5.45;77.66;149031.97;1614001;87;21138;-69
2022/04/18 07:33:22;;;;;;;3.62;2.70;;;;;;;5.43;78.07;149025.48;1620935;86;21435;-65
2022/04/18 07:35:51;;;;;;;3.33;2.60;;;;;;;5.48;79.08;149038.41;1651255;85;21075;-66
2022/04/18 07:41:04;;;;;;;4.95;2.42;;;;;;;5.58;76.66;149062.97;1634799;87;21161;-70
2022/04/18 07:43:37;;;;;;;3.72;2.55;;;;;;;5.59;74.57;149065.55;1608075;87;21092;-69
2022/04/18 07:46:06;;;;;;;4.72;2.67;;;;;;;5.58;75.21;149064.28;1607805;87;21068;-68
2022/04/18 07:48:34;;;;;;;3.10;2.20;;;;;;;5.58;75.01;149064.28;1579258;89;21065;-65
2022/04/18 07:53:48;;;;;;;3.15;2.10;;;;;;;5.55;75.48;149056.53;1607316;87;21138;-65
2022/04/18 07:56:15;;;;;;;4.47;2.50;;;;;;;5.56;74.74;149059.12;1589148;88;21201;-64
2022/04/18 07:58:42;;;;;;;3.72;1.90;;;;;;;5.61;74.25;149070.72;1612359;87;21081;-64
2022/04/18 08:01:12;;;;;;;2.70;1.98;;;;;;;5.65;72.95;149079.78;1628667;87;21049;-67
2022/04/18 08:03:40;;;;;;;4.58;2.30;;;;;;;5.70;73.41;149094.02;1632569;86;21214;-70
2022/04/18 08:06:08;;;;;;;5.28;2.30;;;;;;;5.79;72.63;149114.69;1611005;87;21519;-68
2022/04/18 08:08:43;;;;;;;7.30;3.22;;;;;;;5.87;72.44;149135.41;1609050;87;21493;-69
2022/04/18 08:11:14;;;;;;;5.05;2.37;;;;;;;5.96;70.23;149158.66;1610829;87;21022;-65
2022/04/18 08:13:43;;;;;;;4.58;2.10;;;;;;;6.06;69.84;149181.97;1591073;89;21093;-65
2022/04/18 08:16:11;;;;;;;2.87;1.85;;;;;;;6.19;71.29;149215.62;1610902;87;21162;-68
2022/04/18 08:18:46;;;;;;;2.87;1.32;;;;;;;6.35;71.50;149254.44;1610425;87;21081;-69
2022/04/18 08:21:25;;;;;;;1.75;1.22;;;;;;;6.37;66.12;149260.88;1610593;87;21002;-69
2022/04/18 08:23:52;;;;;;;3.30;1.77;;;;;;;6.39;67.64;149264.78;1610703;87;21081;-68
2022/04/18 08:26:40;;;;;;;2.20;1.60;;;;;;;6.52;69.64;149298.44;1606053;87;21073;-68
2022/04/18 08:29:22;;;;;;;1.92;1.47;;;;;;;6.67;68.72;149334.62;1610417;89;21256;-68
2022/04/18 08:31:54;;;;;;;3.83;1.60;;;;;;;6.76;66.76;149357.94;1608743;87;21140;-68
2022/04/18 08:34:23;;;;;;;3.65;1.60;;;;;;;6.72;64.54;149347.55;1609944;87;21097;-67
2022/04/18 08:36:50;;;;;;;2.47;1.65;;;;;;;6.74;66.26;149352.72;1610293;89;21126;-67
2022/04/18 08:39:18;;;;;;;2.00;1.50;;;;;;;6.85;64.72;149379.91;1610851;89;20919;-68
2022/04/18 08:41:58;;;;;;;3.47;1.50;;;;;;;6.94;64.50;149403.22;1590876;87;21167;-68
2022/04/18 08:44:27;;;;;;;1.87;1.62;;;;;;;7.07;65.59;149434.25;1609806;87;20998;-69
2022/04/18 08:46:56;;;;;;;4.90;2.00;;;;;;;7.16;64.59;149458.84;1610795;87;21105;-68
2022/04/18 08:52:44;;;;;;;1.52;1.42;;;;;;;7.33;62.56;149500.28;1610495;89;21060;-66
2022/04/18 08:54:49;;;;;;;5.15;1.57;;;;;;;7.40;62.64;149517.12;1600474;87;21089;-65
2022/04/18 08:57:16;;;;;;;8.70;1.57;;;;;;;7.41;61.53;149521.03;1584106;89;20998;-65
2022/04/18 08:59:43;;;;;;;3.25;2.30;;;;;;;7.39;60.70;149515.80;1584287;89;21082;-66
2022/04/18 09:02:11;;;;;;;2.35;1.30;;;;;;;7.37;60.75;149509.36;1584455;89;21062;-65
2022/04/18 09:04:48;;;;;;;5.85;1.30;;;;;;;7.36;59.64;149508.03;1576301;87;21181;-66
2022/04/18 09:07:17;;;;;;;2.30;1.77;;;;;;;7.39;59.13;149514.53;1611090;87;20994;-67
2022/04/18 09:09:53;;;;;;;1.65;1.20;;;;;;;7.41;58.59;149521.03;1610641;87;21146;-67
2022/04/18 09:12:20;;;;;;;1.70;1.20;;;;;;;7.47;58.73;149533.95;1610786;89;20880;-68
2022/04/18 09:14:50;;;;;;;1.35;1.10;;;;;;;7.52;58.65;149548.22;1608711;87;21568;-68
2022/04/18 09:17:34;;;;;;;1.92;1.40;;;;;;;7.61;58.82;149570.19;1599542;87;21173;-67
2022/04/18 09:20:19;;;;;;;2.00;1.50;;;;;;;7.70;59.17;149593.52;1582063;89;20975;-68
2022/04/18 09:22:48;;;;;;;2.70;1.20;;;;;;;7.82;58.30;149623.30;1593063;89;21078;-65
2022/04/18 09:25:21;;;;;;;1.82;1.22;;;;;;;7.88;57.57;149638.83;1611075;88;21006;-65
2022/04/18 09:27:57;;;;;;;2.20;1.37;;;;;;;7.99;57.48;149666.03;1606710;87;22191;-65
2022/04/18 09:30:31;;;;;;;1.30;1.00;;;;;;;7.99;55.07;149664.75;1600184;87;21435;-65
2022/04/18 09:33:06;;;;;;;1.20;1.05;;;;;;;7.97;54.97;149660.84;1582588;89;21258;-66
2022/04/18 09:35:39;;;;;;;1.70;1.30;;;;;;;7.94;54.94;149653.08;1583085;88;21167;-66
2022/04/18 09:38:08;;;;;;;4.00;1.17;;;;;;;8.01;56.30;149671.20;1582265;89;21095;-66
2022/04/18 09:40:46;;;;;;;1.95;1.00;;;;;;;8.03;54.02;149676.38;1598906;87;21081;-66
2022/04/18 09:43:16;;;;;;;2.00;1.00;;;;;;;8.00;52.84;149668.61;1587273;89;21145;-66
2022/04/18 09:45:44;;;;;;;1.60;1.15;;;;;;;7.95;53.00;149655.67;1583455;90;21166;-65
2022/04/18 09:48:15;;;;;;;2.55;1.40;;;;;;;7.91;54.75;149645.31;1584173;89;21528;-65
2022/04/18 09:50:59;;;;;;;2.72;1.10;;;;;;;7.88;53.57;149637.56;1583865;89;21622;-65
2022/04/18 09:53:28;;;;;;;1.92;1.10;;;;;;;7.88;54.60;149637.56;1584104;89;21023;-65
2022/04/18 09:55:57;;;;;;;2.42;1.35;;;;;;;7.93;53.47;149650.50;1570090;89;21101;-65
2022/04/18 09:58:26;;;;;;;1.30;1.20;;;;;;;7.95;52.29;149654.34;1600899;89;21267;-65
2022/04/18 10:00:53;;;;;;;2.62;1.32;;;;;;;7.98;53.37;149663.44;1585506;88;21114;-66
2022/04/18 10:03:21;;;;;;;1.47;1.10;;;;;;;8.07;54.00;149684.14;1600081;89;21060;-64
2022/04/18 10:05:49;;;;;;;1.10;1.00;;;;;;;8.09;51.99;149689.38;1609125;87;21157;-65
2022/04/18 10:08:17;;;;;;;1.77;1.20;;;;;;;8.13;53.09;149699.72;1606869;89;21006;-65
2022/04/18 10:10:44;;;;;;;2.05;1.10;;;;;;;8.25;54.73;149730.78;1584501;88;21325;-65
2022/04/18 10:13:12;;;;;;;4.90;1.20;;;;;;;8.41;52.57;149769.66;1584162;89;21046;-67
2022/04/18 10:15:40;;;;;;;1.45;1.12;;;;;;;8.48;52.09;149787.78;1583305;89;21113;-65
2022/04/18 10:18:10;;;;;;;3.17;1.20;;;;;;;8.54;50.98;149803.42;1589342;88;21075;-65
2022/04/18 10:21:10;;;;;;;1.40;1.20;;;;;;;8.57;51.84;149811.19;1604574;87;21100;-65
2022/04/18 10:24:07;;;;;;;1.90;1.15;;;;;;;8.52;50.95;149798.23;1584463;89;22045;-65
2022/04/18 10:27:20;;;;;;;1.92;1.10;;;;;;;8.53;52.36;149799.50;1585452;89;21112;-65
2022/04/18 10:29:51;;;;;;;1.00;0.80;;;;;;;8.54;51.24;149802.09;1584510;89;21179;-65
2022/04/18 10:32:22;;;;;;;1.30;1.12;;;;;;;8.50;50.11;149793.02;1586291;89;21062;-65
2022/04/18 10:34:52;;;;;;;3.17;1.25;;;;;;;8.53;52.60;149799.50;1585418;89;20993;-65
2022/04/18 10:37:24;;;;;;;3.40;1.85;;;;;;;8.66;52.97;149833.22;1585508;89;21275;-65
2022/04/18 10:40:06;;;;;;;3.95;1.30;;;;;;;8.85;52.23;149881.16;1585196;89;21523;-66
2022/04/18 10:42:36;;;;;;;1.90;1.60;;;;;;;8.98;51.82;149912.28;1585222;89;21125;-65
2022/04/18 10:45:10;;;;;;;1.55;1.00;;;;;;;9.03;50.17;149925.23;1585921;89;21352;-68
2022/04/18 10:48:05;;;;;;;;;;;;;;;8.97;50.18;149909.69;1587997;89;21044;-66
2022/04/18 10:50:43;;;;;;;2.70;1.22;;;;;;;9.00;51.28;149917.47;1581280;89;21202;-67
2022/04/18 10:53:36;;;;;;;5.25;1.77;;;;;;;9.05;49.24;149930.41;1581179;89;21058;-65
2022/04/18 10:56:10;;;;;;;2.02;1.10;;;;;;;9.08;51.29;149938.19;1581343;90;21062;-66
2022/04/18 10:58:37;;;;;;;3.05;1.22;;;;;;;9.10;49.58;149943.36;1581058;89;21124;-66
2022/04/18 11:01:08;;;;;;;4.37;1.22;;;;;;;9.09;48.95;149940.77;1580999;89;21129;-66
2022/04/18 11:03:50;;;;;;;2.05;1.45;;;;;;;9.14;49.62;149952.45;1581014;90;21966;-65
2022/04/18 11:06:23;;;;;;;2.47;1.32;;;;;;;9.12;50.00;149948.53;1580723;89;21042;-66
2022/04/18 11:09:06;;;;;;;2.17;1.40;;;;;;;9.16;49.82;149958.91;1581000;90;20989;-66
2022/04/18 11:11:48;;;;;;;5.08;2.10;;;;;;;9.23;49.45;149974.50;1580779;89;21021;-70
2022/04/18 11:14:31;;;;;;;3.75;1.60;;;;;;;9.27;50.22;149986.13;1581233;90;21043;-68
2022/04/18 11:17:02;;;;;;;3.37;2.10;;;;;;;9.25;50.78;149979.67;1581278;89;24608;-69
2022/04/18 11:19:31;;;;;;;2.47;1.30;;;;;;;9.22;50.04;149971.91;1580909;89;21085;-69
2022/04/18 11:22:04;;;;;;;3.33;1.67;;;;;;;9.22;51.83;149973.17;1580995;89;21070;-67
2022/04/18 11:24:41;;;;;;;6.90;2.00;;;;;;;9.20;51.49;149968.00;1580325;89;21184;-68
2022/04/18 11:27:27;;;;;;;5.05;1.47;;;;;;;9.11;50.69;149945.95;1581141;89;21021;-69
2022/04/18 11:30:03;;;;;;;3.25;1.30;;;;;;;9.03;50.51;149925.23;1580728;89;21184;-66
2022/04/18 11:32:36;;;;;;;;;;;;;;;8.99;50.51;149914.87;1583344;89;21120;-66
2022/04/18 11:35:07;;;;;;;1.80;1.27;;;;;;;8.95;50.27;149904.47;1581145;90;20887;-69
2022/04/18 11:37:41;;;;;;;4.53;1.37;;;;;;;8.92;50.27;149898.00;1620255;86;21427;-68
2022/04/18 11:40:11;;;;;;;1.70;1.20;;;;;;;8.99;50.71;149914.87;1615128;86;21066;-68
2022/04/18 11:42:40;;;;;;;4.97;1.50;;;;;;;9.09;50.91;149940.77;1619363;87;21846;-66
2022/04/18 11:45:12;;;;;;;1.82;0.90;;;;;;;9.15;49.77;149955.03;1632229;87;21068;-69
2022/04/18 11:47:47;;;;;;;2.25;1.20;;;;;;;9.17;49.81;149961.53;1628143;86;21121;-68
2022/04/18 11:50:21;;;;;;;;;;;;;;;9.19;49.12;149964.12;1635983;86;21024;-68
2022/04/18 11:52:47;;;;;;;3.33;1.42;;;;;;;9.19;49.05;149964.12;1632686;86;20195;-69
2022/04/18 11:55:17;;;;;;;2.65;1.22;;;;;;;9.16;49.26;149958.91;1633555;87;21278;-66
2022/04/18 11:57:47;;;;;;;1.42;1.00;;;;;;;9.11;49.38;149945.95;1633404;86;21056;-68
2022/04/18 12:06:44;;;;;;;10.85;1.25;;;;;;;9.06;48.67;149933.00;1625166;87;21044;-69
2022/04/18 12:08:24;;;;;;;3.80;1.17;;;;;;;9.16;48.70;149958.91;1604030;88;20989;-69
2022/04/18 12:10:53;;;;;;;3.30;1.10;;;;;;;9.15;48.46;149956.31;1604773;89;21147;-70
2022/04/18 12:13:22;;;;;;;2.45;1.00;;;;;;;9.15;48.79;149956.31;1605293;88;21084;-68
2022/04/18 12:15:49;;;;;;;2.25;0.90;;;;;;;9.19;47.99;149964.12;1605150;88;21111;-68
2022/04/18 12:18:18;;;;;;;4.87;1.10;;;;;;;9.15;47.89;149956.31;1605344;88;21064;-70
2022/04/18 12:20:50;;;;;;;1.70;1.00;;;;;;;9.12;48.02;149948.53;1605468;87;21059;-70